Pierces Corner, New York
Current Conditions -  °F | °C
As of 7:58 AM on Monday 20 Oct 2014 (Local Time) from KGTB Reporting Station
Overcast Overcast  
Wind Chill: 31°   Ceiling: 9500
Heat Index: 36°   Visibility: 10mi
Dew Point: 34°   Wind: 7mph
Humidity: 91%   Direction: 150°SSE
Pressure: 29.95"   Gusts: NA
Location:  44.3309°N, 75.4775°W
Report Text: KGTB 201158Z AUTO 15006KT 10SM OVC095 02/01 A2995 RMK AO2 SLP149 T00230010 10023 21013 55006
Loading
Personal Weather Stations






























Interactive Weather Map New forecast layout! Learn more

10-Day Weather Forecast

Advertisements
Track Severe Weather on mobile